Time;durP1;ratioP1;P1;durP2;ratioP2;P2;SDS_P1;SDS_P2;PMS_P1;PMS_P2;Temp;Humidity;BMP_temperature;BMP_pressure;BME280_temperature;BME280_humidity;BME280_pressure;Samples;Min_cycle;Max_cycle;Signal;HPM_P1;HPM_P2
2021/04/18 00:00:18;;;;;;;7.60;2.43;;;6.40;68.50;;;;;;5053156;28;20393;-78
2021/04/18 00:02:45;;;;;;;8.20;2.50;;;6.40;68.50;;;;;;5053009;28;20056;-78
2021/04/18 00:05:12;;;;;;;7.07;1.83;;;6.30;68.60;;;;;;5052766;28;20100;-77
2021/04/18 00:07:38;;;;;;;7.10;2.20;;;6.30;68.70;;;;;;5035446;28;20025;-77
2021/04/18 00:10:07;;;;;;;8.73;2.23;;;6.40;68.90;;;;;;5051689;28;20423;-77
2021/04/18 00:12:34;;;;;;;7.77;2.80;;;6.30;69.20;;;;;;5035243;28;20029;-78
2021/04/18 00:15:00;;;;;;;10.10;2.47;;;6.20;70.40;;;;;;5035041;28;20466;-77
2021/04/18 00:17:26;;;;;;;12.47;2.67;;;6.20;69.90;;;;;;5051619;28;20035;-78
2021/04/18 00:19:51;;;;;;;13.40;3.60;;;6.20;69.90;;;;;;5052814;28;20029;-78
2021/04/18 00:22:17;;;;;;;7.30;2.23;;;6.20;70.30;;;;;;5051690;28;20032;-78
2021/04/18 00:24:43;;;;;;;12.07;3.47;;;6.20;70.80;;;;;;5051496;28;20033;-77
2021/04/18 00:27:08;;;;;;;10.83;2.90;;;6.20;70.60;;;;;;5051731;28;20078;-77
2021/04/18 00:29:34;;;;;;;7.27;2.40;;;6.10;71.00;;;;;;5052804;28;20389;-78
2021/04/18 00:32:00;;;;;;;7.03;2.87;;;6.10;71.50;;;;;;5035098;28;20048;-78
2021/04/18 00:34:25;;;;;;;9.70;3.20;;;6.10;71.40;;;;;;5051508;28;20025;-78
2021/04/18 00:36:52;;;;;;;8.63;2.53;;;6.20;71.80;;;;;;5053187;28;20032;-78
2021/04/18 00:39:18;;;;;;;10.63;3.20;;;6.10;71.70;;;;;;5055336;28;20380;-78
2021/04/18 00:41:43;;;;;;;9.03;2.50;;;6.10;72.00;;;;;;5055197;28;20036;-78
2021/04/18 00:44:11;;;;;;;8.20;2.73;;;6.10;72.60;;;;;;5054681;28;20151;-78
2021/04/18 00:46:37;;;;;;;7.10;2.67;;;6.10;72.70;;;;;;5053797;28;20473;-78
2021/04/18 00:49:03;;;;;;;10.70;2.87;;;6.10;72.60;;;;;;5043409;28;20423;-78
2021/04/18 00:51:29;;;;;;;8.50;2.90;;;6.00;72.70;;;;;;5046055;28;20147;-78
2021/04/18 00:53:55;;;;;;;10.93;3.03;;;6.00;73.80;;;;;;5037516;28;20396;-78
2021/04/18 00:56:20;;;;;;;9.20;3.00;;;6.00;73.10;;;;;;5075634;28;20114;-78
2021/04/18 00:58:46;;;;;;;12.33;3.30;;;6.00;73.30;;;;;;5075996;28;20029;-77
2021/04/18 01:01:12;;;;;;;9.13;3.00;;;6.00;73.50;;;;;;5058202;28;20036;-78
2021/04/18 01:03:38;;;;;;;11.00;2.73;;;5.90;73.10;;;;;;5058080;28;20036;-78
2021/04/18 01:06:04;;;;;;;11.57;3.23;;;5.80;73.00;;;;;;5075927;28;20024;-78
2021/04/18 01:08:30;;;;;;;10.27;3.10;;;5.80;73.20;;;;;;5075936;28;20037;-78
2021/04/18 01:10:55;;;;;;;8.80;2.53;;;5.80;73.40;;;;;;5058037;28;20442;-78
2021/04/18 01:13:21;;;;;;;9.33;2.80;;;5.70;73.50;;;;;;5075970;28;20036;-78
2021/04/18 01:15:46;;;;;;;9.77;3.77;;;5.70;73.60;;;;;;5075536;28;20099;-78
2021/04/18 01:18:12;;;;;;;9.93;2.80;;;5.70;74.10;;;;;;5041500;28;20025;-77
2021/04/18 01:20:38;;;;;;;6.40;3.07;;;5.60;74.00;;;;;;5076247;28;20033;-78
2021/04/18 01:23:03;;;;;;;7.50;3.03;;;5.60;74.10;;;;;;5074873;28;20039;-78
2021/04/18 01:25:29;;;;;;;12.77;3.10;;;5.60;74.10;;;;;;5040686;28;20032;-78
2021/04/18 01:27:56;;;;;;;13.07;3.00;;;5.50;74.00;;;;;;5041004;28;20120;-78
2021/04/18 01:30:26;;;;;;;16.10;3.27;;;5.50;74.10;;;;;;5057413;28;20480;-78
2021/04/18 01:32:54;;;;;;;12.87;3.47;;;5.50;74.20;;;;;;5067796;28;20083;-78
2021/04/18 01:35:21;;;;;;;7.50;2.97;;;5.50;74.30;;;;;;5073612;28;20119;-78
2021/04/18 01:37:46;;;;;;;7.80;3.40;;;5.40;74.30;;;;;;5075146;28;20044;-78
2021/04/18 01:40:15;;;;;;;13.90;3.30;;;5.40;74.60;;;;;;5075567;28;20044;-78
2021/04/18 01:42:42;;;;;;;7.93;3.30;;;5.30;74.80;;;;;;5057388;28;20028;-77
2021/04/18 01:45:09;;;;;;;8.80;3.67;;;5.30;75.40;;;;;;5075235;28;20112;-78
2021/04/18 01:47:36;;;;;;;11.10;3.87;;;5.30;75.80;;;;;;5057406;28;20102;-78
2021/04/18 01:50:03;;;;;;;11.13;3.83;;;5.20;75.70;;;;;;5053621;28;20049;-78
2021/04/18 01:52:28;;;;;;;8.60;3.50;;;5.20;76.20;;;;;;5053751;28;20021;-78
2021/04/18 01:54:54;;;;;;;12.83;3.83;;;5.10;76.00;;;;;;5037065;28;20090;-78
2021/04/18 01:57:20;;;;;;;9.47;3.07;;;5.10;76.50;;;;;;5037149;28;20041;-78
2021/04/18 01:59:45;;;;;;;9.20;3.80;;;5.10;77.10;;;;;;5036945;28;20037;-78
2021/04/18 02:02:13;;;;;;;11.03;4.30;;;5.00;76.80;;;;;;5053636;28;20037;-78
2021/04/18 02:04:39;;;;;;;9.03;3.27;;;5.00;77.40;;;;;;5053728;28;20163;-78
2021/04/18 02:07:07;;;;;;;8.03;3.77;;;4.90;77.40;;;;;;5053575;28;20029;-78
2021/04/18 02:09:34;;;;;;;10.97;3.97;;;4.90;77.70;;;;;;5054818;28;20379;-78
2021/04/18 02:12:01;;;;;;;10.40;4.20;;;4.90;77.80;;;;;;5051016;28;20029;-78
2021/04/18 02:14:27;;;;;;;10.63;3.70;;;5.00;77.90;;;;;;5037133;28;20522;-78
2021/04/18 02:16:53;;;;;;;10.97;3.87;;;4.80;78.90;;;;;;5036185;28;20120;-78
2021/04/18 02:19:20;;;;;;;11.27;3.83;;;4.80;78.50;;;;;;5047034;28;20463;-78
2021/04/18 02:21:46;;;;;;;8.60;3.93;;;4.80;78.50;;;;;;5049716;28;20036;-79
2021/04/18 02:24:12;;;;;;;9.27;4.27;;;4.80;78.60;;;;;;5043363;28;20037;-79
2021/04/18 02:26:39;;;;;;;8.87;3.97;;;4.70;78.90;;;;;;5054605;28;20021;-75
2021/04/18 02:29:05;;;;;;;13.67;4.60;;;4.60;79.10;;;;;;5036521;28;20048;-75
2021/04/18 02:31:30;;;;;;;10.37;3.87;;;4.60;79.30;;;;;;5053044;28;20010;-74
2021/04/18 02:33:56;;;;;;;15.63;4.87;;;4.60;79.30;;;;;;5029660;28;20033;-73
2021/04/18 02:36:22;;;;;;;12.43;3.50;;;4.50;79.20;;;;;;5034736;28;20033;-73
2021/04/18 02:38:47;;;;;;;14.03;4.63;;;4.60;79.40;;;;;;5033331;28;20041;-73
2021/04/18 02:41:13;;;;;;;11.97;4.90;;;4.50;79.50;;;;;;5034230;28;20377;-73
2021/04/18 02:43:39;;;;;;;14.60;4.57;;;4.50;79.60;;;;;;5042288;28;20041;-74
2021/04/18 02:46:05;;;;;;;11.37;3.80;;;4.50;79.80;;;;;;5052588;28;20064;-73
2021/04/18 02:48:31;;;;;;;8.87;3.93;;;4.30;79.90;;;;;;5036409;28;20044;-75
2021/04/18 02:50:57;;;;;;;11.30;4.03;;;4.40;80.10;;;;;;5035935;28;20493;-75
2021/04/18 02:53:22;;;;;;;10.43;4.83;;;4.40;80.80;;;;;;5036093;28;20021;-72
2021/04/18 02:55:48;;;;;;;13.00;4.23;;;4.40;80.50;;;;;;5052903;28;20025;-73
2021/04/18 02:58:14;;;;;;;13.17;3.97;;;4.40;80.60;;;;;;5036215;28;20021;-75
2021/04/18 03:00:39;;;;;;;11.10;4.60;;;4.40;80.70;;;;;;5035496;28;20111;-75
2021/04/18 03:03:05;;;;;;;13.87;4.40;;;4.40;80.70;;;;;;5052443;28;20475;-75
2021/04/18 03:05:31;;;;;;;11.20;4.83;;;4.40;80.80;;;;;;5052654;28;20036;-75
2021/04/18 03:07:57;;;;;;;10.87;4.60;;;4.40;80.90;;;;;;5052705;28;20120;-75
2021/04/18 03:10:23;;;;;;;14.93;4.93;;;4.40;80.90;;;;;;5053063;28;20052;-75
2021/04/18 03:12:49;;;;;;;11.03;4.87;;;4.40;81.10;;;;;;5052956;28;20100;-75
2021/04/18 03:15:15;;;;;;;11.13;4.20;;;4.40;81.20;;;;;;5052759;28;20476;-75
2021/04/18 03:17:41;;;;;;;10.80;4.70;;;4.40;81.30;;;;;;5036209;28;20112;-75
2021/04/18 03:20:07;;;;;;;10.37;4.80;;;4.40;81.50;;;;;;5053927;28;20060;-75
2021/04/18 03:22:33;;;;;;;14.80;5.17;;;4.40;81.70;;;;;;5052180;28;20056;-75
2021/04/18 03:24:58;;;;;;;11.33;4.67;;;4.40;81.90;;;;;;5052125;28;20547;-75
2021/04/18 03:27:24;;;;;;;15.27;5.67;;;4.40;82.00;;;;;;5053584;28;20025;-75
2021/04/18 03:29:50;;;;;;;17.70;5.57;;;4.50;82.00;;;;;;5052732;28;20071;-75
2021/04/18 03:32:16;;;;;;;12.93;6.30;;;4.50;82.10;;;;;;5035558;28;20025;-74
2021/04/18 03:34:42;;;;;;;14.03;5.07;;;4.40;82.10;;;;;;5019979;28;20025;-75
2021/04/18 03:37:07;;;;;;;14.77;5.57;;;4.40;82.40;;;;;;4999621;28;20032;-75
2021/04/18 03:39:33;;;;;;;16.53;5.20;;;4.40;82.40;;;;;;5016295;28;20022;-75
2021/04/18 03:41:59;;;;;;;12.20;4.70;;;4.40;82.40;;;;;;5032554;28;20041;-75
2021/04/18 03:44:25;;;;;;;12.33;5.23;;;4.40;82.50;;;;;;5045724;28;20033;-75
2021/04/18 03:46:50;;;;;;;16.43;5.57;;;4.40;82.60;;;;;;5035543;28;20079;-75
2021/04/18 03:49:16;;;;;;;14.10;4.80;;;4.40;82.70;;;;;;5052266;28;20043;-75
2021/04/18 03:51:42;;;;;;;15.90;5.67;;;4.40;82.90;;;;;;5071525;28;20060;-74
2021/04/18 03:54:08;;;;;;;12.73;5.53;;;4.40;82.90;;;;;;5055270;28;20039;-75
2021/04/18 03:56:33;;;;;;;14.87;5.37;;;4.30;83.00;;;;;;5055566;28;20025;-74
2021/04/18 03:58:59;;;;;;;13.67;5.23;;;4.30;83.10;;;;;;5038782;28;20056;-74
2021/04/18 04:01:24;;;;;;;18.40;5.07;;;4.30;83.30;;;;;;5037840;28;20031;-75
2021/04/18 04:03:50;;;;;;;13.13;5.60;;;4.30;83.40;;;;;;5054543;28;20090;-74
2021/04/18 04:06:16;;;;;;;13.37;5.53;;;4.30;83.60;;;;;;5054878;28;20480;-74
2021/04/18 04:08:41;;;;;;;13.30;5.50;;;4.30;83.60;;;;;;5073590;28;20095;-75
2021/04/18 04:11:07;;;;;;;12.37;4.93;;;4.30;83.70;;;;;;5055532;28;20021;-75
2021/04/18 04:13:33;;;;;;;9.57;4.73;;;4.30;83.90;;;;;;5058353;28;20388;-75
2021/04/18 04:15:58;;;;;;;11.50;4.70;;;4.30;84.00;;;;;;5042122;28;20130;-73
2021/04/18 04:18:24;;;;;;;11.80;5.17;;;4.20;84.10;;;;;;5059127;28;20029;-74
2021/04/18 04:20:49;;;;;;;13.33;6.17;;;4.30;84.10;;;;;;5042167;28;20056;-73
2021/04/18 04:23:15;;;;;;;12.47;5.33;;;4.30;84.10;;;;;;5058855;28;20104;-73
2021/04/18 04:25:41;;;;;;;11.40;5.07;;;4.20;84.00;;;;;;5059253;28;20024;-75
2021/04/18 04:28:09;;;;;;;13.30;4.83;;;4.20;84.10;;;;;;5023374;28;20050;-73
2021/04/18 04:30:35;;;;;;;8.70;4.10;;;4.20;84.20;;;;;;5022482;28;20025;-73
2021/04/18 04:33:01;;;;;;;13.50;4.53;;;4.10;84.10;;;;;;5039303;28;20115;-77
2021/04/18 04:35:27;;;;;;;15.30;4.40;;;4.10;84.40;;;;;;5058664;28;20556;-77
2021/04/18 04:37:52;;;;;;;8.20;3.67;;;4.10;84.70;;;;;;5057893;28;20033;-77
2021/04/18 04:40:18;;;;;;;8.87;3.60;;;4.10;85.00;;;;;;5058151;28;20396;-77
2021/04/18 04:42:44;;;;;;;7.97;3.50;;;4.10;84.90;;;;;;5069741;28;20033;-77
2021/04/18 04:45:10;;;;;;;9.07;4.00;;;4.20;84.80;;;;;;5053459;28;20028;-79
2021/04/18 04:47:36;;;;;;;8.07;3.83;;;4.10;85.00;;;;;;5062583;28;20029;-78
2021/04/18 04:50:03;;;;;;;6.70;3.00;;;4.10;85.10;;;;;;5038248;28;20041;-77
2021/04/18 04:52:28;;;;;;;7.73;4.03;;;4.10;86.10;;;;;;5022849;28;20041;-77
2021/04/18 04:54:54;;;;;;;6.93;3.53;;;4.00;86.00;;;;;;5053829;28;20037;-77
2021/04/18 04:57:20;;;;;;;5.80;2.87;;;4.10;85.40;;;;;;5060219;28;20047;-77
2021/04/18 04:59:45;;;;;;;5.70;2.93;;;4.00;85.30;;;;;;5057733;28;20021;-77
2021/04/18 05:02:11;;;;;;;8.17;3.17;;;4.00;85.80;;;;;;5075771;28;20427;-77
2021/04/18 05:04:36;;;;;;;7.47;2.93;;;4.00;85.90;;;;;;5057619;28;20045;-77
2021/04/18 05:07:02;;;;;;;8.33;3.20;;;4.00;85.90;;;;;;5041299;28;20024;-77
2021/04/18 05:09:28;;;;;;;6.73;3.33;;;4.00;85.70;;;;;;5075917;28;20028;-77
2021/04/18 05:11:55;;;;;;;5.80;3.10;;;4.00;85.80;;;;;;5041294;28;20052;-77
2021/04/18 05:14:21;;;;;;;6.53;3.37;;;4.00;85.50;;;;;;5057009;28;20072;-77
2021/04/18 05:16:46;;;;;;;8.77;3.13;;;4.00;85.40;;;;;;5075911;28;20561;-77
2021/04/18 05:19:12;;;;;;;5.93;3.20;;;4.00;85.40;;;;;;5058573;28;20068;-78
2021/04/18 05:21:38;;;;;;;5.30;2.73;;;4.00;85.50;;;;;;5038341;28;20055;-77
2021/04/18 05:24:04;;;;;;;7.77;3.30;;;4.20;85.70;;;;;;5055167;28;20065;-77
2021/04/18 05:26:30;;;;;;;10.17;3.93;;;4.00;85.80;;;;;;5068885;28;20032;-77
2021/04/18 05:28:55;;;;;;;7.23;3.07;;;4.00;85.80;;;;;;5054297;28;20040;-78
2021/04/18 05:31:22;;;;;;;10.93;4.00;;;4.10;86.00;;;;;;5037599;28;20480;-77
2021/04/18 05:33:48;;;;;;;8.37;3.77;;;4.10;86.10;;;;;;5042276;28;20048;-77
2021/04/18 05:36:13;;;;;;;8.93;3.63;;;4.10;86.10;;;;;;5075186;28;20091;-77
2021/04/18 05:38:39;;;;;;;6.77;3.60;;;4.20;86.20;;;;;;5057378;28;20040;-77
2021/04/18 05:41:04;;;;;;;8.53;3.77;;;4.20;86.30;;;;;;5040650;28;20119;-77
2021/04/18 05:43:30;;;;;;;8.07;3.70;;;4.20;86.30;;;;;;5023784;28;20086;-78
2021/04/18 05:45:56;;;;;;;9.73;4.30;;;4.30;86.40;;;;;;5036799;28;20033;-78
2021/04/18 05:48:22;;;;;;;9.63;4.40;;;4.30;86.40;;;;;;5046323;28;20033;-77
2021/04/18 05:50:47;;;;;;;10.30;4.37;;;4.40;86.50;;;;;;5074699;28;20045;-77
2021/04/18 05:53:14;;;;;;;8.80;4.43;;;4.40;86.70;;;;;;5074951;28;20112;-77
2021/04/18 05:55:40;;;;;;;11.93;4.50;;;4.50;86.80;;;;;;5057625;28;20028;-77
2021/04/18 05:58:06;;;;;;;13.30;4.67;;;4.50;86.80;;;;;;5075157;28;20032;-77
2021/04/18 06:00:33;;;;;;;11.83;4.33;;;4.60;86.80;;;;;;5057159;28;20025;-77
2021/04/18 06:02:58;;;;;;;9.50;4.77;;;4.60;86.90;;;;;;5074796;28;20032;-78
2021/04/18 06:05:24;;;;;;;10.57;4.93;;;4.60;87.10;;;;;;5074395;28;20032;-78
2021/04/18 06:07:50;;;;;;;12.57;4.57;;;4.60;87.10;;;;;;5074754;28;20112;-78
2021/04/18 06:10:15;;;;;;;14.03;5.50;;;4.80;87.30;;;;;;5056777;28;20472;-78
2021/04/18 06:12:41;;;;;;;11.63;4.10;;;4.80;87.30;;;;;;5074651;28;20024;-77
2021/04/18 06:15:09;;;;;;;12.80;4.97;;;4.80;87.40;;;;;;5056170;28;20035;-77
2021/04/18 06:17:35;;;;;;;10.37;4.47;;;4.90;87.70;;;;;;5057221;28;20024;-77
2021/04/18 06:20:01;;;;;;;13.43;5.30;;;4.90;87.90;;;;;;5074530;28;20495;-77
2021/04/18 06:22:27;;;;;;;11.67;4.60;;;5.00;87.90;;;;;;5050442;28;20029;-77
2021/04/18 06:24:52;;;;;;;9.03;4.67;;;5.00;88.00;;;;;;5072940;28;20467;-78
2021/04/18 06:27:18;;;;;;;11.53;4.53;;;5.00;88.10;;;;;;5056405;28;20032;-77
2021/04/18 06:29:43;;;;;;;11.07;4.97;;;5.10;88.10;;;;;;5056418;28;20462;-78
2021/04/18 06:32:09;;;;;;;9.83;5.10;;;5.10;88.30;;;;;;5056359;28;20073;-78
2021/04/18 06:34:35;;;;;;;8.00;4.37;;;5.20;88.10;;;;;;5055516;28;20073;-78
2021/04/18 06:37:01;;;;;;;8.57;4.17;;;5.20;88.10;;;;;;5039641;28;20126;-78
2021/04/18 06:39:27;;;;;;;11.57;4.73;;;5.30;88.20;;;;;;5056563;28;20134;-78
2021/04/18 06:41:55;;;;;;;11.90;4.77;;;5.30;88.20;;;;;;5056287;28;20528;-77
2021/04/18 06:44:21;;;;;;;10.63;4.20;;;5.50;88.20;;;;;;5056235;28;20017;-78
2021/04/18 06:46:51;;;;;;;7.80;3.90;;;5.40;88.20;;;;;;5056036;28;20021;-78
2021/04/18 06:49:18;;;;;;;8.67;4.13;;;5.50;88.20;;;;;;5073995;28;20131;-78
2021/04/18 06:51:46;;;;;;;8.90;3.50;;;5.60;88.30;;;;;;5073913;28;20043;-78
2021/04/18 06:54:12;;;;;;;11.17;4.50;;;5.60;88.60;;;;;;5051802;28;20098;-77
2021/04/18 06:56:38;;;;;;;8.53;4.37;;;5.70;88.70;;;;;;5052343;28;20055;-77
2021/04/18 06:59:04;;;;;;;8.87;4.67;;;5.80;88.60;;;;;;5056060;28;20111;-78
2021/04/18 07:01:30;;;;;;;7.80;4.03;;;5.80;88.60;;;;;;5073895;28;20500;-78
2021/04/18 07:04:12;;;;;;;9.50;4.53;;;5.80;88.80;;;;;;5061523;28;20040;-78
2021/04/18 07:06:43;;;;;;;10.50;4.70;;;5.80;88.70;;;;;;5074651;28;20022;-78
2021/04/18 07:09:10;;;;;;;11.23;5.00;;;5.90;89.20;;;;;;5055720;28;20021;-78
2021/04/18 07:11:59;;;;;;;9.40;5.07;;;5.90;90.00;;;;;;5073538;28;20028;-79
2021/04/18 07:14:31;;;;;;;8.23;4.77;;;6.00;89.80;;;;;;5066535;28;20530;-79
2021/04/18 07:17:10;;;;;;;10.13;5.23;;;6.00;89.90;;;;;;5060830;28;20029;-80
2021/04/18 07:19:42;;;;;;;13.47;5.13;;;6.10;89.80;;;;;;5054302;28;20118;-78
2021/04/18 07:22:08;;;;;;;10.43;5.27;;;6.10;90.00;;;;;;5053066;28;20488;-78
2021/04/18 07:24:57;;;;;;;9.17;5.37;;;6.20;90.10;;;;;;5042551;28;20029;-79
2021/04/18 07:27:23;;;;;;;11.47;5.03;;;6.20;90.00;;;;;;5055594;28;20107;-79
2021/04/18 07:29:59;;;;;;;11.83;5.03;;;6.30;89.90;;;;;;5073412;28;20094;-78
2021/04/18 07:32:27;;;;;;;10.43;5.30;;;6.30;89.70;;;;;;5038901;28;20093;-79
2021/04/18 07:34:53;;;;;;;10.37;5.30;;;6.40;90.10;;;;;;5055687;28;20154;-78
2021/04/18 07:37:22;;;;;;;11.57;4.73;;;6.50;89.50;;;;;;5029985;28;20101;-79
2021/04/18 07:40:00;;;;;;;10.50;5.10;;;6.60;89.50;;;;;;5059807;28;20070;-79
2021/04/18 07:42:40;;;;;;;10.07;4.97;;;6.60;89.20;;;;;;5070797;28;20503;-79
2021/04/18 07:45:12;;;;;;;9.27;4.33;;;6.70;89.10;;;;;;5070365;28;20031;-78
2021/04/18 07:47:40;;;;;;;13.97;4.60;;;6.80;89.00;;;;;;5074125;28;20118;-78
2021/04/18 07:50:09;;;;;;;9.97;3.83;;;7.00;89.10;;;;;;5067327;28;20037;-78
2021/04/18 07:52:38;;;;;;;14.67;4.20;;;7.00;88.90;;;;;;5059763;28;20051;-78
2021/04/18 07:55:04;;;;;;;9.20;3.40;;;7.10;88.30;;;;;;5041852;28;20063;-78
2021/04/18 07:57:30;;;;;;;11.70;3.57;;;7.20;87.70;;;;;;5058387;28;20404;-78
2021/04/18 07:59:57;;;;;;;7.53;3.73;;;7.30;87.30;;;;;;5025246;28;20040;-78
2021/04/18 08:02:24;;;;;;;7.33;3.77;;;7.50;86.90;;;;;;5041763;28;20052;-78
2021/04/18 08:04:54;;;;;;;8.73;3.73;;;7.50;86.50;;;;;;5035797;28;20029;-78
2021/04/18 08:07:21;;;;;;;9.97;3.53;;;7.60;86.30;;;;;;5056350;28;20036;-78
2021/04/18 08:09:46;;;;;;;8.43;2.90;;;7.70;86.00;;;;;;5078907;28;20028;-78
2021/04/18 08:12:18;;;;;;;8.40;3.07;;;7.90;85.90;;;;;;5061769;28;20025;-77
2021/04/18 08:14:46;;;;;;;7.93;3.27;;;8.10;85.70;;;;;;5079492;28;20036;-77
2021/04/18 08:17:14;;;;;;;8.10;3.07;;;8.20;85.30;;;;;;5079575;28;20025;-77
2021/04/18 08:20:00;;;;;;;10.63;3.53;;;8.30;84.90;;;;;;5079380;28;20035;-78
2021/04/18 08:23:06;;;;;;;8.57;2.77;;;8.50;84.20;;;;;;5061253;28;20085;-78
2021/04/18 08:25:33;;;;;;;6.50;2.47;;;8.60;83.50;;;;;;5061093;28;20494;-77
2021/04/18 08:28:09;;;;;;;8.93;3.20;;;8.70;82.90;;;;;;5061535;28;20051;-80
2021/04/18 08:30:54;;;;;;;8.37;2.97;;;8.90;82.20;;;;;;5058961;28;20025;-77
2021/04/18 08:33:38;;;;;;;7.00;2.40;;;9.00;80.60;;;;;;5064627;28;20119;-78
2021/04/18 08:36:23;;;;;;;6.90;3.00;;;9.00;79.80;;;;;;5061160;28;20033;-73
2021/04/18 08:39:10;;;;;;;8.70;2.20;;;9.20;79.20;;;;;;5071812;28;20020;-73
2021/04/18 08:41:40;;;;;;;6.37;2.23;;;9.30;78.40;;;;;;5081978;28;20024;-73
2021/04/18 08:44:23;;;;;;;6.37;2.33;;;9.40;77.70;;;;;;5044542;28;20123;-72
2021/04/18 08:46:52;;;;;;;10.90;3.17;;;9.50;77.30;;;;;;5061614;28;20498;-72
2021/04/18 08:49:39;;;;;;;6.17;2.33;;;9.60;76.90;;;;;;5079073;28;20074;-72
2021/04/18 08:52:26;;;;;;;5.83;2.53;;;9.70;76.20;;;;;;5057736;28;20118;-72
2021/04/18 08:54:55;;;;;;;7.63;2.67;;;9.80;74.90;;;;;;5058118;28;20021;-72
2021/04/18 08:57:23;;;;;;;5.37;2.33;;;10.00;74.70;;;;;;5056771;28;20070;-72
2021/04/18 08:59:58;;;;;;;6.17;2.20;;;10.10;73.50;;;;;;5054587;28;20031;-73
2021/04/18 09:02:29;;;;;;;8.63;2.67;;;10.20;73.30;;;;;;5056010;28;20060;-72
2021/04/18 09:05:00;;;;;;;8.27;2.03;;;10.30;72.60;;;;;;5054470;28;20033;-72
2021/04/18 09:07:29;;;;;;;7.67;2.67;;;10.40;72.20;;;;;;5054402;28;20472;-71
2021/04/18 09:10:00;;;;;;;4.70;1.77;;;10.40;72.00;;;;;;5055594;28;20139;-71
2021/04/18 09:12:26;;;;;;;5.43;2.00;;;10.50;71.10;;;;;;5056034;28;20021;-73
2021/04/18 09:14:52;;;;;;;6.17;2.33;;;10.70;70.40;;;;;;5049559;28;20440;-72
2021/04/18 09:17:24;;;;;;;6.43;2.20;;;10.80;69.50;;;;;;5048378;28;20550;-72
2021/04/18 09:19:55;;;;;;;4.73;1.90;;;10.90;69.30;;;;;;5051755;28;20024;-73
2021/04/18 09:22:31;;;;;;;5.30;2.60;;;10.90;68.80;;;;;;5044570;28;20024;-73
2021/04/18 09:25:01;;;;;;;6.83;2.13;;;11.10;68.20;;;;;;5058943;28;20036;-72
2021/04/18 09:27:30;;;;;;;7.70;2.50;;;11.20;67.60;;;;;;5054420;28;20035;-73
2021/04/18 09:30:01;;;;;;;5.90;1.77;;;11.40;66.90;;;;;;5054344;28;20535;-73
2021/04/18 09:32:32;;;;;;;5.33;2.40;;;11.50;66.30;;;;;;5054520;28;20024;-73
2021/04/18 09:34:59;;;;;;;5.60;2.00;;;11.60;65.80;;;;;;5067284;28;20021;-73
2021/04/18 09:37:28;;;;;;;4.13;1.50;;;11.70;65.30;;;;;;5054100;28;20017;-73
2021/04/18 09:39:59;;;;;;;6.27;2.13;;;11.70;65.00;;;;;;5054259;28;20032;-73
2021/04/18 09:42:26;;;;;;;5.10;1.67;;;11.90;64.70;;;;;;5036809;28;20450;-76
2021/04/18 09:44:55;;;;;;;6.90;1.80;;;12.00;64.00;;;;;;5034053;28;20063;-78
2021/04/18 09:47:20;;;;;;;5.90;2.07;;;12.10;63.80;;;;;;5034246;28;20021;-78
2021/04/18 09:49:47;;;;;;;7.18;1.98;;;12.20;63.40;;;;;;5034145;28;20079;-78
2021/04/18 09:52:33;;;;;;;6.43;1.80;;;12.40;62.90;;;;;;5033651;28;20087;-78
2021/04/18 09:55:18;;;;;;;9.13;2.60;;;12.50;62.20;;;;;;5033903;28;20036;-78
2021/04/18 09:57:57;;;;;;;9.52;3.25;;;12.50;61.30;;;;;;5034000;28;20030;-78
2021/04/18 10:00:24;;;;;;;7.63;2.90;;;12.60;61.00;;;;;;5035403;28;20048;-78
2021/04/18 10:03:14;;;;;;;12.45;3.17;;;12.70;60.50;;;;;;5033673;28;20029;-78
2021/04/18 10:05:42;;;;;;;12.88;2.97;;;12.80;60.40;;;;;;5042528;28;20381;-78
2021/04/18 10:08:21;;;;;;;8.57;2.58;;;12.90;60.40;;;;;;5045850;28;20091;-78
2021/04/18 10:10:49;;;;;;;7.68;2.83;;;13.00;60.40;;;;;;5064598;28;20120;-78
2021/04/18 10:13:16;;;;;;;7.15;3.28;;;13.20;60.40;;;;;;5053632;28;20032;-79
2021/04/18 10:15:55;;;;;;;8.25;3.67;;;13.30;60.50;;;;;;5053164;28;20036;-78
2021/04/18 10:18:21;;;;;;;10.48;3.58;;;13.70;60.50;;;;;;5053308;28;20039;-79
2021/04/18 10:20:48;;;;;;;7.07;3.22;;;14.00;60.10;;;;;;5054815;28;20028;-78
2021/04/18 10:23:14;;;;;;;6.15;2.83;;;14.50;59.10;;;;;;5053138;28;20044;-79
2021/04/18 10:25:41;;;;;;;7.32;2.90;;;15.00;58.00;;;;;;5053546;28;20385;-78
2021/04/18 10:28:09;;;;;;;9.70;2.70;;;15.40;56.70;;;;;;5053596;28;20024;-79
2021/04/18 10:30:37;;;;;;;5.28;2.25;;;15.80;56.60;;;;;;5053767;28;20036;-79
2021/04/18 10:33:03;;;;;;;7.30;2.58;;;16.10;56.30;;;;;;5051015;28;20424;-79
2021/04/18 10:35:29;;;;;;;7.63;2.53;;;16.50;55.40;;;;;;5052430;28;20033;-80
2021/04/18 10:37:54;;;;;;;5.90;2.33;;;17.00;54.10;;;;;;5035803;28;20040;-80
2021/04/18 10:40:27;;;;;;;7.22;2.55;;;17.60;52.90;;;;;;5029257;28;20162;-78
2021/04/18 10:42:52;;;;;;;7.70;2.42;;;18.20;50.70;;;;;;5053943;28;20025;-79
2021/04/18 10:45:18;;;;;;;8.88;2.53;;;18.50;50.50;;;;;;5052831;28;20037;-79
2021/04/18 10:47:44;;;;;;;3.92;2.10;;;18.60;48.80;;;;;;5053897;28;20037;-79
2021/04/18 10:50:14;;;;;;;5.70;2.13;;;19.20;47.80;;;;;;5052252;28;20096;-79
2021/04/18 10:52:40;;;;;;;5.82;2.05;;;19.80;47.20;;;;;;5016946;28;20055;-79
2021/04/18 10:55:08;;;;;;;7.15;2.22;;;20.10;47.10;;;;;;5052616;28;20107;-80
2021/04/18 10:57:33;;;;;;;6.00;2.25;;;20.20;46.50;;;;;;5036659;28;20481;-78
2021/04/18 10:59:59;;;;;;;6.35;2.08;;;20.20;46.20;;;;;;5052354;28;20025;-79
2021/04/18 11:02:25;;;;;;;6.15;2.13;;;20.40;45.40;;;;;;5032917;28;20029;-80
2021/04/18 11:04:50;;;;;;;5.47;2.00;;;20.50;44.70;;;;;;5060116;28;20506;-79
2021/04/18 11:07:16;;;;;;;5.68;1.83;;;20.60;44.10;;;;;;5049780;28;20033;-78
2021/04/18 11:09:41;;;;;;;6.95;1.92;;;20.70;43.60;;;;;;5052263;28;20496;-79
2021/04/18 11:12:18;;;;;;;7.20;1.92;;;20.80;43.80;;;;;;5052232;28;20029;-79
2021/04/18 11:14:44;;;;;;;7.15;2.25;;;20.90;42.40;;;;;;5053306;28;20024;-79
2021/04/18 11:17:10;;;;;;;8.88;2.42;;;21.00;42.50;;;;;;5035284;28;20170;-78
2021/04/18 11:19:36;;;;;;;6.93;2.72;;;21.10;42.10;;;;;;5053813;28;20464;-79
2021/04/18 11:22:01;;;;;;;9.23;3.00;;;21.20;41.80;;;;;;5052231;28;20408;-76
2021/04/18 11:24:27;;;;;;;5.63;2.72;;;21.30;41.60;;;;;;5035583;28;20037;-75
2021/04/18 11:26:53;;;;;;;7.35;2.40;;;21.40;41.30;;;;;;5061303;28;20053;-74
2021/04/18 11:29:19;;;;;;;3.97;2.03;;;21.50;41.10;;;;;;5062310;28;20353;-79
2021/04/18 11:31:44;;;;;;;5.38;2.38;;;21.60;40.80;;;;;;5051971;28;20370;-78
2021/04/18 11:34:10;;;;;;;5.60;2.58;;;21.80;40.60;;;;;;5035665;28;20040;-79
2021/04/18 11:36:36;;;;;;;4.57;2.22;;;22.00;40.40;;;;;;5052121;28;20029;-79
2021/04/18 11:39:02;;;;;;;8.75;2.70;;;22.20;40.20;;;;;;5053264;28;20029;-80
2021/04/18 11:41:28;;;;;;;5.97;2.80;;;22.30;40.00;;;;;;5035620;28;20104;-79
2021/04/18 11:43:54;;;;;;;5.90;2.53;;;22.50;40.00;;;;;;5056810;28;20041;-83
2021/04/18 11:46:19;;;;;;;4.60;2.13;;;22.70;39.70;;;;;;5050741;28;20029;-79
2021/04/18 11:48:45;;;;;;;5.95;2.00;;;22.80;39.50;;;;;;5050539;28;20477;-79
2021/04/18 11:51:10;;;;;;;7.18;2.88;;;22.90;39.20;;;;;;5051509;28;20116;-80
2021/04/18 11:53:36;;;;;;;3.97;1.98;;;23.00;38.90;;;;;;5081594;28;20388;-80
2021/04/18 11:56:02;;;;;;;5.05;2.10;;;23.10;38.50;;;;;;5055323;28;20030;-79
2021/04/18 11:58:28;;;;;;;6.03;2.40;;;23.30;38.20;;;;;;5055425;28;20032;-79
2021/04/18 12:00:53;;;;;;;5.70;2.30;;;23.50;38.00;;;;;;5055503;28;20464;-80
2021/04/18 12:03:19;;;;;;;7.50;2.40;;;23.60;37.70;;;;;;5055174;28;20419;-80
2021/04/18 12:05:45;;;;;;;4.35;1.98;;;23.80;37.50;;;;;;5073165;28;20076;-80
2021/04/18 12:08:11;;;;;;;5.07;1.83;;;24.00;37.30;;;;;;5038620;28;20447;-79
2021/04/18 12:10:37;;;;;;;4.97;2.55;;;24.20;36.90;;;;;;5050395;28;20159;-80
2021/04/18 12:13:03;;;;;;;6.72;2.33;;;24.30;36.50;;;;;;5065318;28;20025;-79
2021/04/18 12:15:29;;;;;;;6.35;1.90;;;24.30;36.20;;;;;;5055139;28;20008;-80
2021/04/18 12:17:55;;;;;;;4.70;1.90;;;24.50;36.00;;;;;;5038076;28;20028;-80
2021/04/18 12:20:20;;;;;;;5.15;2.00;;;24.60;35.80;;;;;;5052492;28;20029;-80
2021/04/18 12:22:46;;;;;;;5.65;2.17;;;24.80;35.70;;;;;;5054819;28;20066;-80
2021/04/18 12:25:12;;;;;;;3.80;2.03;;;25.00;35.40;;;;;;5036317;28;20043;-79
2021/04/18 12:27:39;;;;;;;3.80;1.85;;;25.20;35.20;;;;;;5045911;28;20029;-79
2021/04/18 12:30:07;;;;;;;5.90;1.90;;;25.30;34.90;;;;;;5072450;28;20024;-79
2021/04/18 12:32:32;;;;;;;7.95;3.13;;;25.50;34.70;;;;;;5066112;28;20103;-79
2021/04/18 12:34:58;;;;;;;5.78;2.13;;;25.70;34.60;;;;;;5057200;28;20072;-80
2021/04/18 12:37:24;;;;;;;5.97;2.63;;;25.90;34.10;;;;;;5047162;28;20134;-79
2021/04/18 12:39:50;;;;;;;5.60;2.10;;;26.00;33.90;;;;;;5074387;28;20036;-78
2021/04/18 12:42:16;;;;;;;4.03;1.90;;;26.10;33.70;;;;;;5076474;28;20090;-79
2021/04/18 12:44:41;;;;;;;5.28;2.05;;;26.10;33.40;;;;;;5076169;28;20029;-80
2021/04/18 12:47:12;;;;;;;5.13;2.47;;;26.10;33.20;;;;;;5042493;28;20029;-79
2021/04/18 12:49:38;;;;;;;5.70;2.38;;;26.20;33.20;;;;;;5058014;28;20483;-80
2021/04/18 12:52:04;;;;;;;6.45;2.50;;;26.30;33.00;;;;;;5061653;28;20089;-81